Time;durP1;ratioP1;P1;durP2;ratioP2;P2;SDS_P1;SDS_P2;PMS_P1;PMS_P2;Temp;Humidity;BMP_temperature;BMP_pressure;BME280_temperature;BME280_humidity;BME280_pressure;Samples;Min_cycle;Max_cycle;Signal;HPM_P1;HPM_P2
2023/09/08 00:00:49;;;;;;;44.78;28.42;;;;;;;29.47;nan;97889.31;4909626;29;20451;-63
2023/09/08 00:03:21;;;;;;;45.67;30.52;;;;;;;29.48;nan;97891.69;4921612;29;20391;-63
2023/09/08 00:05:50;;;;;;;43.95;28.80;;;;;;;29.45;nan;97889.63;4936926;28;20366;-63
2023/09/08 00:08:20;;;;;;;49.67;30.63;;;;;;;29.45;nan;97897.81;4926232;29;20071;-63
2023/09/08 00:10:52;;;;;;;42.90;28.48;;;;;;;29.42;nan;97902.03;4919367;28;20141;-64
2023/09/08 00:13:21;;;;;;;41.90;29.23;;;;;;;29.44;nan;97913.38;4919334;28;20502;-63
2023/09/08 00:15:50;;;;;;;44.25;28.60;;;;;;;29.42;nan;97918.41;4932147;29;20056;-64
2023/09/08 00:18:20;;;;;;;42.75;27.50;;;;;;;29.47;nan;97922.06;4925771;29;20162;-64
2023/09/08 00:20:50;;;;;;;41.42;27.27;;;;;;;29.45;nan;97915.00;4932169;29;20071;-64
2023/09/08 00:23:19;;;;;;;43.42;28.10;;;;;;;29.43;nan;97922.69;4932950;28;20536;-64
2023/09/08 00:25:49;;;;;;;43.10;28.45;;;;;;;29.43;nan;97924.66;4935743;29;20052;-64
2023/09/08 00:28:19;;;;;;;36.55;27.70;;;;;;;29.50;nan;97935.81;4937506;28;20052;-64
2023/09/08 00:30:48;;;;;;;40.78;27.50;;;;;;;29.47;nan;97930.25;4931299;29;20059;-64
2023/09/08 00:33:17;;;;;;;41.67;29.27;;;;;;;29.54;nan;97942.19;4922694;28;20050;-64
2023/09/08 00:35:50;;;;;;;40.30;28.38;;;;;;;29.54;nan;97939.47;4949091;28;20059;-65
2023/09/08 00:38:19;;;;;;;38.17;27.27;;;;;;;29.54;nan;97946.84;4932246;28;20056;-64
2023/09/08 00:40:49;;;;;;;48.45;27.98;;;;;;;29.57;nan;97951.63;4904772;29;20063;-64
2023/09/08 00:43:19;;;;;;;42.17;28.75;;;;;;;29.57;nan;97946.97;4931508;29;20424;-62
2023/09/08 00:45:49;;;;;;;42.55;29.80;;;;;;;29.58;nan;97958.69;4939931;29;20482;-64
2023/09/08 00:48:18;;;;;;;49.75;28.52;;;;;;;29.60;nan;97964.63;4939398;29;20046;-65
2023/09/08 00:50:48;;;;;;;44.00;27.77;;;;;;;29.59;nan;97965.75;4938090;29;20383;-64
2023/09/08 00:53:18;;;;;;;37.97;27.90;;;;;;;29.61;nan;97966.25;4932497;29;20147;-64
2023/09/08 00:55:48;;;;;;;34.47;27.90;;;;;;;29.61;nan;97975.19;4923474;29;20143;-65
2023/09/08 00:58:18;;;;;;;42.47;27.38;;;;;;;29.70;nan;97984.13;4949112;28;20109;-60
2023/09/08 01:00:47;;;;;;;39.75;27.42;;;;;;;29.72;nan;97981.06;4921672;29;20056;-64
2023/09/08 01:03:16;;;;;;;37.80;28.27;;;;;;;29.64;nan;97980.00;4921463;28;20056;-64
2023/09/08 01:05:48;;;;;;;44.22;28.85;;;;;;;29.55;nan;97984.75;4932319;29;20146;-64
2023/09/08 01:08:18;;;;;;;37.83;29.05;;;;;;;29.49;nan;97985.25;4932966;28;20064;-64
2023/09/08 01:10:48;;;;;;;40.63;29.40;;;;;;;29.51;nan;97994.72;4918435;29;20051;-64
2023/09/08 01:13:18;;;;;;;44.20;32.40;;;;;;;29.55;nan;97992.94;4941451;28;20153;-64
2023/09/08 01:15:48;;;;;;;44.85;31.48;;;;;;;29.54;nan;97993.25;4949114;28;20098;-62
2023/09/08 01:18:17;;;;;;;40.42;31.45;;;;;;;29.48;nan;97997.31;4916068;29;20083;-62
2023/09/08 01:21:19;;;;;;;43.42;31.23;;;;;;;29.43;nan;97995.59;4938189;28;20099;-64
2023/09/08 01:24:12;;;;;;;40.42;30.35;;;;;;;29.52;nan;97993.56;4930548;29;20059;-64
2023/09/08 01:26:42;;;;;;;46.60;31.40;;;;;;;29.56;nan;97997.25;4937156;28;20060;-64
2023/09/08 01:29:16;;;;;;;47.28;32.20;;;;;;;29.56;nan;98001.91;4929841;29;20052;-64
2023/09/08 01:31:45;;;;;;;38.08;30.80;;;;;;;29.60;nan;97997.38;4940969;28;20146;-64
2023/09/08 01:34:15;;;;;;;44.13;31.08;;;;;;;29.64;nan;97996.38;4920960;29;20075;-64
2023/09/08 01:36:46;;;;;;;42.03;30.38;;;;;;;29.70;nan;98002.41;4929088;28;20052;-64
2023/09/08 01:39:15;;;;;;;40.20;29.75;;;;;;;29.67;nan;98008.56;4911915;29;20087;-64
2023/09/08 01:41:45;;;;;;;40.72;29.33;;;;;;;29.73;nan;98010.75;4938843;28;20138;-64
2023/09/08 01:44:15;;;;;;;40.97;30.45;;;;;;;29.70;nan;98010.59;4926753;28;20113;-64
2023/09/08 01:46:45;;;;;;;42.50;31.35;;;;;;;29.77;nan;98014.41;4940697;28;20503;-64
2023/09/08 01:49:15;;;;;;;41.20;30.27;;;;;;;29.85;nan;98018.19;4930435;29;20143;-64
2023/09/08 01:51:44;;;;;;;42.55;29.95;;;;;;;29.95;nan;98023.28;4916067;29;20058;-62
2023/09/08 01:54:17;;;;;;;47.22;29.70;;;;;;;30.06;nan;98023.66;4926357;29;20036;-63
2023/09/08 01:56:47;;;;;;;37.33;28.73;;;;;;;30.15;nan;98019.72;4922709;29;20072;-62
2023/09/08 01:59:16;;;;;;;37.83;28.38;;;;;;;30.26;nan;98018.16;4903703;29;20143;-62
2023/09/08 02:01:45;;;;;;;40.17;28.83;;;;;;;30.34;nan;98025.47;4913933;29;20044;-62
2023/09/08 02:04:15;;;;;;;43.63;28.13;;;;;;;30.37;nan;98031.38;4910356;29;20484;-62
2023/09/08 02:06:44;;;;;;;44.10;28.73;;;;;;;30.43;nan;98030.03;4922314;29;20135;-64
2023/09/08 02:09:15;;;;;;;44.63;28.35;;;;;;;30.44;nan;98032.44;4926680;28;20044;-64
2023/09/08 02:11:48;;;;;;;40.55;29.33;;;;;;;30.54;nan;98042.94;4921262;29;20134;-64
2023/09/08 02:14:17;;;;;;;45.42;27.92;;;;;;;30.75;nan;98040.94;4910317;29;20051;-64
2023/09/08 02:16:47;;;;;;;39.97;27.42;;;;;;;30.88;nan;98047.22;4923553;29;20067;-65
2023/09/08 02:19:17;;;;;;;37.70;26.73;;;;;;;31.03;nan;98043.00;4924039;29;20044;-65
2023/09/08 02:21:50;;;;;;;37.30;26.95;;;;;;;31.16;nan;98039.94;4914367;29;20480;-64
2023/09/08 02:24:38;;;;;;;37.58;27.25;;;;;;;31.20;nan;98046.31;4920746;29;20408;-64
2023/09/08 02:27:08;;;;;;;40.13;27.90;;;;;;;31.17;nan;98030.59;4912239;29;20060;-66
2023/09/08 02:29:37;;;;;;;34.80;26.40;;;;;;;31.40;nan;98043.78;4896938;29;20601;-64
2023/09/08 02:32:06;;;;;;;36.83;26.83;;;;;;;31.58;nan;98042.41;4908852;29;20526;-63
2023/09/08 02:34:37;;;;;;;45.17;26.50;;;;;;;31.69;nan;98048.22;4897289;29;20063;-64
2023/09/08 02:37:07;;;;;;;39.92;27.70;;;;;;;31.69;nan;98051.72;4911281;29;20126;-64
2023/09/08 02:39:37;;;;;;;43.25;26.13;;;;;;;31.72;nan;98053.81;4911757;29;20060;-64
2023/09/08 02:42:26;;;;;;;42.58;25.65;;;;;;;31.78;nan;98063.34;4921754;29;20131;-63
2023/09/08 02:44:57;;;;;;;36.67;23.85;;;;;;;31.84;nan;98067.44;4909453;29;20135;-63
2023/09/08 02:47:29;;;;;;;42.20;24.10;;;;;;;31.88;nan;98068.34;4901111;29;20119;-63
2023/09/08 02:50:03;;;;;;;38.63;23.00;;;;;;;31.91;nan;98069.63;4917314;29;20075;-64
2023/09/08 02:52:33;;;;;;;42.53;23.52;;;;;;;32.12;nan;98074.91;4905444;29;20064;-63
2023/09/08 02:55:03;;;;;;;51.55;25.90;;;;;;;32.01;nan;98080.06;4918224;28;20459;-64
2023/09/08 02:57:32;;;;;;;34.45;24.48;;;;;;;32.16;nan;98073.06;4900903;29;20719;-63
2023/09/08 03:00:04;;;;;;;49.65;24.88;;;;;;;32.17;nan;98080.16;4915077;29;20047;-63
2023/09/08 03:02:34;;;;;;;35.42;22.08;;;;;;;32.10;nan;98075.25;4925779;28;20387;-63
2023/09/08 03:05:05;;;;;;;35.47;21.38;;;;;;;32.11;nan;98081.53;4918703;29;20083;-63
2023/09/08 03:07:37;;;;;;;31.20;20.48;;;;;;;32.22;nan;98088.13;4924569;29;20047;-64
2023/09/08 03:10:07;;;;;;;31.80;18.60;;;;;;;32.24;nan;98085.81;4947492;28;20138;-65
2023/09/08 03:12:37;;;;;;;32.92;18.80;;;;;;;32.36;nan;98083.81;4921551;29;20063;-64
2023/09/08 03:15:07;;;;;;;29.02;18.60;;;;;;;32.31;nan;98091.53;4929515;28;20073;-63
2023/09/08 03:17:36;;;;;;;27.70;17.25;;;;;;;32.23;nan;98093.25;4914070;29;20357;-63
2023/09/08 03:20:07;;;;;;;31.05;17.58;;;;;;;32.22;nan;98088.13;4910321;29;20484;-63
2023/09/08 03:22:37;;;;;;;30.20;17.70;;;;;;;32.30;nan;98087.19;4918977;29;20055;-63
2023/09/08 03:25:06;;;;;;;31.27;15.30;;;;;;;32.19;nan;98097.03;4940250;28;20107;-63
2023/09/08 03:27:37;;;;;;;30.73;17.17;;;;;;;32.44;nan;98096.56;4931838;28;20140;-63
2023/09/08 03:30:07;;;;;;;24.95;16.52;;;;;;;32.49;nan;98101.81;4911399;29;20054;-62
2023/09/08 03:32:38;;;;;;;36.15;17.60;;;;;;;32.47;nan;98095.88;4919527;29;20513;-64
2023/09/08 03:35:08;;;;;;;32.35;17.08;;;;;;;32.48;nan;98102.97;4926113;29;20047;-63
2023/09/08 03:37:38;;;;;;;32.47;15.32;;;;;;;32.32;nan;98104.06;4911924;29;20130;-63
2023/09/08 03:40:10;;;;;;;34.20;15.35;;;;;;;32.40;nan;98098.41;4910115;29;20064;-63
2023/09/08 03:42:42;;;;;;;27.80;14.90;;;;;;;32.54;nan;98100.75;4922930;29;20063;-63
2023/09/08 03:45:12;;;;;;;32.60;13.88;;;;;;;32.61;nan;98100.16;4924717;28;20052;-63
2023/09/08 03:47:41;;;;;;;38.00;15.38;;;;;;;32.61;nan;98102.91;4916536;29;20079;-63
2023/09/08 03:50:11;;;;;;;30.13;13.75;;;;;;;32.71;nan;98108.69;4911538;29;20071;-64
2023/09/08 03:52:41;;;;;;;30.50;12.85;;;;;;;32.83;nan;98107.81;4925161;29;20052;-63
2023/09/08 03:55:11;;;;;;;28.38;13.93;;;;;;;32.98;nan;98110.56;4927044;29;20043;-63
2023/09/08 03:57:40;;;;;;;19.33;12.73;;;;;;;33.02;nan;98107.13;4944817;28;20047;-63
2023/09/08 04:00:17;;;;;;;21.70;13.45;;;;;;;33.09;nan;98112.78;4932102;28;20143;-63
2023/09/08 04:02:46;;;;;;;24.80;12.82;;;;;;;32.93;nan;98102.59;4910782;29;20602;-64
2023/09/08 04:05:18;;;;;;;22.73;12.68;;;;;;;33.09;nan;98104.56;4931831;28;20047;-64
2023/09/08 04:07:48;;;;;;;24.77;13.97;;;;;;;33.07;nan;98115.06;4922747;29;20047;-64
2023/09/08 04:10:18;;;;;;;27.73;12.75;;;;;;;33.21;nan;98118.22;4912360;29;20059;-63
2023/09/08 04:12:47;;;;;;;24.42;12.65;;;;;;;33.26;nan;98115.19;4922532;29;20165;-64
2023/09/08 04:15:17;;;;;;;26.77;12.90;;;;;;;33.18;nan;98111.50;4917114;29;20446;-63
2023/09/08 04:17:57;;;;;;;24.60;13.50;;;;;;;33.30;nan;98103.16;4910822;29;20055;-64
2023/09/08 04:20:27;;;;;;;26.55;12.90;;;;;;;33.34;nan;98104.03;4914053;29;20074;-63
2023/09/08 04:22:56;;;;;;;23.77;12.90;;;;;;;33.33;nan;98105.19;4917527;29;20090;-63
2023/09/08 04:25:25;;;;;;;25.10;12.32;;;;;;;33.45;nan;98101.53;4926444;29;20051;-64
2023/09/08 04:27:54;;;;;;;29.92;12.85;;;;;;;33.42;nan;98103.03;4927447;28;20047;-63
2023/09/08 04:30:23;;;;;;;23.80;12.40;;;;;;;33.47;nan;98099.22;4924779;29;20885;-63
2023/09/08 04:32:54;;;;;;;28.40;12.55;;;;;;;33.58;nan;98100.28;4922496;29;20080;-64
2023/09/08 04:35:24;;;;;;;20.52;11.73;;;;;;;33.65;nan;98091.38;4913790;29;20066;-63
2023/09/08 04:37:53;;;;;;;23.52;13.55;;;;;;;33.83;nan;98089.84;4925054;28;20127;-64
2023/09/08 04:40:24;;;;;;;20.48;12.52;;;;;;;33.92;nan;98084.94;4898361;29;20459;-64
2023/09/08 04:42:53;;;;;;;23.95;11.68;;;;;;;34.10;nan;98086.09;4910138;29;20135;-64
2023/09/08 04:45:25;;;;;;;24.33;11.82;;;;;;;34.57;nan;98085.06;4932263;28;20110;-64
2023/09/08 04:47:54;;;;;;;25.13;12.90;;;;;;;34.81;nan;98089.47;4928368;29;20047;-64
2023/09/08 04:50:23;;;;;;;22.73;12.25;;;;;;;34.65;nan;98087.56;4948814;28;20066;-63
2023/09/08 04:52:53;;;;;;;25.58;12.13;;;;;;;34.59;nan;98083.56;4922420;29;20772;-64
2023/09/08 04:55:23;;;;;;;19.98;12.00;;;;;;;35.27;nan;98088.31;4919651;29;20427;-64
2023/09/08 04:57:53;;;;;;;21.70;11.43;;;;;;;35.45;nan;98089.34;4908605;29;20480;-63
2023/09/08 05:00:22;;;;;;;22.83;11.70;;;;;;;35.71;nan;98087.78;4920313;29;20052;-64
2023/09/08 05:02:56;;;;;;;21.05;12.15;;;;;;;35.68;nan;98092.06;4907412;29;20055;-64
2023/09/08 05:05:26;;;;;;;22.92;11.88;;;;;;;35.76;nan;98087.47;4918894;29;20059;-64
2023/09/08 05:07:56;;;;;;;22.27;11.40;;;;;;;35.84;nan;98083.63;4913128;29;20051;-64
2023/09/08 05:10:26;;;;;;;23.00;11.15;;;;;;;36.18;nan;98090.78;4911613;29;20048;-63
2023/09/08 05:12:55;;;;;;;17.58;11.65;;;;;;;36.43;nan;98086.34;4899878;29;20054;-64
2023/09/08 05:15:26;;;;;;;23.23;11.45;;;;;;;36.62;nan;98079.06;4896896;29;20071;-63
2023/09/08 05:17:56;;;;;;;22.08;10.60;;;;;;;36.98;nan;98078.22;4919988;28;20052;-64
2023/09/08 05:20:26;;;;;;;23.83;12.27;;;;;;;37.03;nan;98077.88;4898916;29;20565;-64
2023/09/08 05:22:56;;;;;;;24.80;12.32;;;;;;;37.33;nan;98077.72;4924273;28;20062;-63
2023/09/08 05:25:28;;;;;;;17.77;11.68;;;;;;;37.40;nan;98079.75;4895179;29;20055;-63
2023/09/08 05:27:58;;;;;;;23.52;11.48;;;;;;;37.21;nan;98073.31;4915247;29;20075;-63
2023/09/08 05:30:27;;;;;;;20.10;10.88;;;;;;;37.35;nan;98075.38;4907558;29;20329;-64
2023/09/08 05:32:57;;;;;;;20.02;10.40;;;;;;;37.54;nan;98068.81;4918683;29;20142;-64
2023/09/08 05:35:27;;;;;;;22.10;11.52;;;;;;;37.81;nan;98072.09;4920407;29;20063;-63
2023/09/08 05:37:56;;;;;;;18.45;11.30;;;;;;;37.47;nan;98068.75;4909474;29;20166;-63
2023/09/08 05:40:26;;;;;;;18.33;10.80;;;;;;;37.77;nan;98066.56;4909407;29;20048;-63
2023/09/08 05:42:56;;;;;;;24.50;9.95;;;;;;;37.86;nan;98064.25;4918378;29;20056;-64
2023/09/08 05:45:25;;;;;;;22.45;11.40;;;;;;;37.65;nan;98062.19;4920717;29;20060;-62
2023/09/08 05:47:55;;;;;;;26.42;11.55;;;;;;;37.19;nan;98058.28;4920408;29;20111;-64
2023/09/08 05:50:26;;;;;;;22.75;10.95;;;;;;;36.89;nan;98059.22;4918158;29;20071;-64
2023/09/08 05:52:57;;;;;;;25.20;10.77;;;;;;;37.26;nan;98053.63;4910183;29;20118;-63
2023/09/08 05:55:27;;;;;;;19.08;10.80;;;;;;;37.60;nan;98048.72;4904286;29;20071;-64
2023/09/08 05:57:57;;;;;;;23.52;10.10;;;;;;;37.92;nan;98042.53;4917911;29;20072;-64
2023/09/08 06:00:27;;;;;;;17.45;10.38;;;;;;;37.48;nan;98048.22;4912749;29;20056;-64
2023/09/08 06:02:56;;;;;;;20.83;10.00;;;;;;;37.62;nan;98051.88;4910241;29;20527;-64
2023/09/08 06:05:26;;;;;;;20.35;9.60;;;;;;;37.70;nan;98036.94;4908187;29;20138;-64
2023/09/08 06:07:55;;;;;;;21.77;9.43;;;;;;;37.22;nan;98050.00;4901937;29;20040;-64
2023/09/08 06:10:38;;;;;;;20.17;9.93;;;;;;;37.26;nan;98030.72;4907054;29;20055;-64
2023/09/08 06:13:08;;;;;;;25.77;10.32;;;;;;;37.19;nan;98031.47;4911148;29;20054;-64
2023/09/08 06:15:37;;;;;;;16.20;9.98;;;;;;;37.71;nan;98034.94;4886467;29;20048;-64
2023/09/08 06:18:07;;;;;;;15.73;9.40;;;;;;;37.37;nan;98028.81;4907330;29;20986;-65
2023/09/08 06:20:36;;;;;;;19.13;9.68;;;;;;;37.85;nan;98023.94;4909284;29;20043;-64
2023/09/08 06:23:06;;;;;;;16.10;9.77;;;;;;;37.77;nan;98019.56;4897358;29;20052;-64
2023/09/08 06:25:36;;;;;;;21.38;10.18;;;;;;;37.56;nan;98022.25;4900902;29;20389;-63
2023/09/08 06:28:06;;;;;;;21.13;9.25;;;;;;;37.18;nan;98012.50;4900554;29;20626;-64
2023/09/08 06:30:35;;;;;;;19.77;9.52;;;;;;;37.25;nan;98018.09;4898400;29;20126;-63
2023/09/08 06:33:05;;;;;;;16.15;7.80;;;;;;;37.45;nan;98018.59;4902913;29;20099;-64
2023/09/08 06:35:35;;;;;;;26.35;9.50;;;;;;;37.43;nan;98012.66;4898969;29;20059;-64
2023/09/08 06:38:05;;;;;;;24.13;9.70;;;;;;;37.22;nan;98010.56;4914461;29;20495;-64
2023/09/08 06:40:34;;;;;;;21.95;9.48;;;;;;;37.28;nan;98007.06;4889719;29;20056;-65
2023/09/08 06:43:04;;;;;;;16.92;9.30;;;;;;;37.18;nan;97999.47;4895409;29;20155;-63
2023/09/08 06:45:51;;;;;;;22.17;11.68;;;;;;;37.42;nan;98002.78;4894593;29;20059;-63
2023/09/08 06:48:23;;;;;;;16.50;9.52;;;;;;;37.09;nan;98009.31;4916628;29;20368;-63
2023/09/08 06:50:56;;;;;;;22.02;11.35;;;;;;;37.31;nan;97999.97;4906223;29;20444;-64
2023/09/08 06:53:26;;;;;;;16.02;9.38;;;;;;;37.07;nan;97995.88;4892881;29;20056;-64
2023/09/08 06:55:56;;;;;;;12.20;8.48;;;;;;;37.01;nan;97991.03;4914991;29;20143;-64
2023/09/08 06:58:25;;;;;;;20.88;9.98;;;;;;;37.02;nan;97995.41;4912106;29;20044;-65
2023/09/08 07:00:55;;;;;;;19.58;9.75;;;;;;;37.25;nan;97994.03;4914649;29;20055;-64
2023/09/08 07:03:26;;;;;;;13.23;10.10;;;;;;;37.14;nan;97982.09;4920434;28;20148;-64
2023/09/08 07:05:57;;;;;;;20.93;11.07;;;;;;;37.02;nan;97987.91;4906773;29;20070;-65
2023/09/08 07:08:27;;;;;;;19.08;10.32;;;;;;;37.17;nan;97980.56;4912753;29;20378;-64
2023/09/08 07:10:57;;;;;;;19.45;11.73;;;;;;;37.22;nan;97975.44;4899696;29;20059;-63
2023/09/08 07:13:26;;;;;;;21.58;12.40;;;;;;;36.73;nan;97977.84;4903071;29;20071;-64
2023/09/08 07:16:00;;;;;;;22.77;11.63;;;;;;;36.74;nan;97976.66;4913353;29;20055;-64
2023/09/08 07:18:34;;;;;;;15.20;11.20;;;;;;;36.94;nan;97966.16;4903580;29;20066;-65
2023/09/08 07:21:07;;;;;;;17.55;11.77;;;;;;;37.10;nan;97961.94;4901444;29;20052;-65
2023/09/08 07:23:37;;;;;;;18.27;11.65;;;;;;;37.10;nan;97963.91;4907543;29;20130;-64
2023/09/08 07:26:08;;;;;;;24.53;12.30;;;;;;;36.64;nan;97963.59;4919522;28;20126;-65
2023/09/08 07:28:40;;;;;;;22.88;10.90;;;;;;;36.70;nan;97967.56;4901411;29;20048;-65
2023/09/08 07:31:13;;;;;;;20.90;10.98;;;;;;;36.73;nan;97958.53;4920926;29;20048;-65
2023/09/08 07:33:59;;;;;;;19.10;10.93;;;;;;;36.60;nan;97952.53;4913968;28;20110;-64
2023/09/08 07:36:28;;;;;;;22.88;12.23;;;;;;;36.76;nan;97946.72;4899278;29;20071;-65
2023/09/08 07:38:58;;;;;;;20.23;11.68;;;;;;;36.70;nan;97945.47;4902605;29;20420;-63
2023/09/08 07:41:27;;;;;;;21.02;12.15;;;;;;;36.73;nan;97944.72;4909860;29;20063;-63
2023/09/08 07:43:57;;;;;;;20.45;11.88;;;;;;;36.59;nan;97934.38;4908783;29;20553;-63
2023/09/08 07:46:26;;;;;;;18.60;11.45;;;;;;;36.70;nan;97937.19;4880629;29;20174;-63
2023/09/08 07:48:59;;;;;;;19.90;11.60;;;;;;;36.65;nan;97938.34;4907376;29;20415;-63
2023/09/08 07:54:54;;;;;;;21.33;12.23;;;;;;;36.72;nan;97932.09;4778489;29;20153;-63
2023/09/08 07:57:46;;;;;;;21.92;12.15;;;;;;;36.65;nan;97924.53;4786012;29;20055;-64
2023/09/08 08:00:37;;;;;;;19.13;12.07;;;;;;;36.78;nan;97919.53;4779875;29;20114;-65
2023/09/08 08:03:27;;;;;;;27.77;12.68;;;;;;;36.72;nan;97919.09;4776560;29;20070;-65
2023/09/08 08:06:17;;;;;;;28.67;12.55;;;;;;;36.53;nan;97911.03;4785316;29;20050;-64
2023/09/08 08:09:07;;;;;;;25.25;12.68;;;;;;;36.63;nan;97904.84;4785664;29;20116;-64
2023/09/08 08:11:57;;;;;;;29.25;12.18;;;;;;;36.66;nan;97903.25;4780934;29;20050;-64
2023/09/08 08:14:47;;;;;;;20.75;11.38;;;;;;;36.59;nan;97903.19;4792990;29;20176;-63
2023/09/08 08:17:37;;;;;;;17.90;12.20;;;;;;;36.40;nan;97887.66;4782823;29;20047;-64
2023/09/08 08:20:28;;;;;;;22.83;13.13;;;;;;;36.01;nan;97890.88;4779830;29;20589;-64
2023/09/08 08:23:18;;;;;;;17.13;12.00;;;;;;;35.97;nan;97881.78;4789383;29;20146;-64
2023/09/08 08:26:07;;;;;;;26.17;12.38;;;;;;;35.87;nan;97873.38;4780760;29;20065;-64
2023/09/08 08:28:57;;;;;;;28.55;12.77;;;;;;;35.70;nan;97869.28;4785169;29;20062;-64
2023/09/08 08:31:47;;;;;;;18.15;12.35;;;;;;;35.55;nan;97870.25;4783714;29;20470;-64
2023/09/08 08:34:37;;;;;;;16.38;12.90;;;;;;;35.35;nan;97868.88;4789716;29;21058;-63
2023/09/08 08:37:27;;;;;;;18.00;12.65;;;;;;;35.10;nan;97855.53;4791404;29;20054;-64
2023/09/08 08:40:17;;;;;;;20.48;13.07;;;;;;;35.11;nan;97848.88;4788178;29;20043;-64
2023/09/08 08:43:07;;;;;;;23.48;13.10;;;;;;;35.14;nan;97830.84;4789733;29;20055;-64
2023/09/08 08:46:00;;;;;;;19.73;12.88;;;;;;;35.18;nan;97828.94;4788305;29;20056;-65
2023/09/08 08:48:54;;;;;;;20.83;13.65;;;;;;;35.13;nan;97826.47;4786517;29;20090;-64
2023/09/08 08:51:45;;;;;;;20.20;13.68;;;;;;;34.94;nan;97835.69;4787438;29;20047;-64
2023/09/08 08:54:40;;;;;;;19.83;13.05;;;;;;;35.02;nan;97831.06;4780095;29;20062;-64
2023/09/08 08:57:32;;;;;;;32.92;14.85;;;;;;;35.06;nan;97827.19;4787509;29;20059;-64
2023/09/08 09:00:22;;;;;;;22.02;13.15;;;;;;;35.01;nan;97818.44;4776138;29;20043;-64
2023/09/08 09:03:14;;;;;;;18.67;13.77;;;;;;;34.99;nan;97827.09;4788447;29;20060;-64
2023/09/08 09:06:04;;;;;;;17.30;13.18;;;;;;;34.89;nan;97802.97;4784356;29;20055;-62
2023/09/08 09:08:54;;;;;;;21.55;13.27;;;;;;;34.81;nan;97803.28;4787783;29;20723;-62
2023/09/08 09:11:44;;;;;;;24.88;14.10;;;;;;;34.83;nan;97800.94;4779822;29;20058;-62
2023/09/08 09:14:34;;;;;;;25.15;14.27;;;;;;;34.98;nan;97791.69;4782887;29;20082;-63
2023/09/08 09:17:24;;;;;;;20.88;14.57;;;;;;;34.99;nan;97793.28;4786552;29;20051;-63
2023/09/08 09:20:15;;;;;;;26.27;14.80;;;;;;;34.98;nan;97795.22;4788189;29;20050;-63
2023/09/08 09:23:05;;;;;;;25.30;13.82;;;;;;;34.94;nan;97782.59;4794767;29;20055;-63
2023/09/08 09:25:55;;;;;;;23.70;13.65;;;;;;;34.97;nan;97773.56;4787357;29;20055;-66
2023/09/08 09:28:48;;;;;;;20.48;13.25;;;;;;;35.00;nan;97775.59;4788495;29;20134;-64
2023/09/08 09:31:51;;;;;;;24.45;14.20;;;;;;;34.92;nan;97782.97;4782642;29;20082;-63
2023/09/08 09:35:03;;;;;;;19.65;14.63;;;;;;;34.84;nan;97784.03;4783327;29;20043;-64
2023/09/08 09:37:54;;;;;;;24.63;14.80;;;;;;;34.86;nan;97773.47;4798518;29;20150;-65
2023/09/08 09:40:45;;;;;;;21.98;15.13;;;;;;;34.79;nan;97773.34;4789068;29;20047;-63
2023/09/08 09:43:36;;;;;;;24.88;14.80;;;;;;;34.82;nan;97769.88;4792899;29;20050;-61
2023/09/08 09:46:29;;;;;;;25.40;14.75;;;;;;;34.80;nan;97761.19;4777923;29;20058;-62
2023/09/08 09:49:19;;;;;;;22.70;14.85;;;;;;;34.82;nan;97760.84;4780624;29;20051;-62
2023/09/08 09:52:09;;;;;;;25.20;14.07;;;;;;;34.72;nan;97754.03;4782019;29;20051;-62
2023/09/08 09:54:59;;;;;;;22.55;15.02;;;;;;;34.55;nan;97747.09;4786145;29;20059;-62
2023/09/08 09:57:49;;;;;;;18.45;14.32;;;;;;;34.52;nan;97747.81;4788884;29;20499;-62
2023/09/08 10:00:47;;;;;;;22.20;14.07;;;;;;;34.51;nan;97746.28;4781757;29;20384;-63
2023/09/08 10:03:41;;;;;;;24.70;14.85;;;;;;;34.62;nan;97740.88;4789377;29;20159;-62
2023/09/08 10:06:34;;;;;;;23.23;14.85;;;;;;;34.60;nan;97741.28;4788590;29;20064;-65
2023/09/08 10:09:24;;;;;;;20.95;13.82;;;;;;;34.56;nan;97739.66;4795459;29;20050;-62
2023/09/08 10:12:16;;;;;;;24.27;13.55;;;;;;;34.66;nan;97737.03;4786376;29;20430;-63
2023/09/08 10:15:07;;;;;;;22.40;13.25;;;;;;;34.60;nan;97729.47;4789147;29;20132;-62
2023/09/08 10:18:03;;;;;;;24.67;14.25;;;;;;;34.63;nan;97729.53;4794648;29;20058;-63
2023/09/08 10:20:56;;;;;;;18.88;13.60;;;;;;;34.45;nan;97712.00;4771800;29;20166;-65
2023/09/08 10:23:54;;;;;;;20.87;14.23;;;;;;;34.48;nan;97722.25;4788105;29;20519;-64
2023/09/08 10:26:50;;;;;;;20.83;14.38;;;;;;;34.50;nan;97716.38;4779747;29;20055;-64
2023/09/08 10:29:40;;;;;;;24.80;14.65;;;;;;;34.54;nan;97714.47;4775640;29;20470;-66
2023/09/08 10:32:32;;;;;;;23.13;14.25;;;;;;;34.53;nan;97710.91;4794119;29;20050;-65
2023/09/08 10:35:23;;;;;;;27.58;15.02;;;;;;;34.48;nan;97708.50;4812648;29;20062;-65
2023/09/08 10:38:31;;;;;;;28.40;14.90;;;;;;;34.44;nan;97704.91;4795552;29;20046;-64
2023/09/08 10:41:27;;;;;;;21.08;13.13;;;;;;;34.39;nan;97701.72;4785256;29;20566;-63
2023/09/08 10:44:17;;;;;;;25.00;14.18;;;;;;;34.39;nan;97699.72;4806449;29;20050;-62
2023/09/08 10:47:07;;;;;;;23.75;13.45;;;;;;;34.38;nan;97697.38;4804268;29;20054;-64
2023/09/08 10:50:00;;;;;;;30.83;14.35;;;;;;;34.27;nan;97686.22;4784901;29;20055;-64
2023/09/08 10:53:16;;;;;;;22.35;13.32;;;;;;;34.23;nan;97688.13;4787714;29;20088;-63
2023/09/08 10:56:06;;;;;;;21.55;13.48;;;;;;;34.23;nan;97683.44;4783346;29;20165;-64
2023/09/08 10:59:08;;;;;;;21.88;13.00;;;;;;;34.15;nan;97683.66;4776086;29;20059;-64
2023/09/08 11:02:03;;;;;;;23.73;13.88;;;;;;;34.05;nan;97678.81;4777386;29;20409;-65
2023/09/08 11:04:54;;;;;;;21.23;13.48;;;;;;;34.05;nan;97681.56;4779433;29;20058;-64
2023/09/08 11:07:46;;;;;;;25.38;16.02;;;;;;;34.05;nan;97682.34;4786515;29;20111;-64
2023/09/08 11:10:37;;;;;;;24.15;13.95;;;;;;;34.01;nan;97673.28;4788406;29;20046;-64
2023/09/08 11:13:29;;;;;;;29.95;15.30;;;;;;;34.08;nan;97672.59;4770155;29;20062;-64
2023/09/08 11:16:23;;;;;;;27.02;13.82;;;;;;;33.98;nan;97668.53;4786366;29;20047;-65
2023/09/08 11:19:13;;;;;;;26.30;14.30;;;;;;;34.03;nan;97670.97;4786239;29;20194;-65
2023/09/08 11:22:03;;;;;;;19.23;13.27;;;;;;;34.03;nan;97675.66;4787169;29;20035;-66
2023/09/08 11:24:56;;;;;;;23.45;14.65;;;;;;;34.03;nan;97670.16;4790046;29;20146;-65
2023/09/08 11:27:46;;;;;;;23.13;14.38;;;;;;;33.87;nan;97672.25;4788736;29;20047;-64
2023/09/08 11:30:36;;;;;;;23.77;14.05;;;;;;;33.83;nan;97663.97;4782474;29;20047;-63
2023/09/08 11:33:26;;;;;;;23.00;14.70;;;;;;;33.89;nan;97664.47;4783502;29;20118;-64
2023/09/08 11:36:19;;;;;;;32.80;15.20;;;;;;;33.85;nan;97669.91;4778763;29;20044;-66
2023/09/08 11:39:10;;;;;;;23.33;14.65;;;;;;;33.79;nan;97661.19;4788190;29;20116;-64
2023/09/08 11:42:01;;;;;;;19.80;13.52;;;;;;;33.81;nan;97663.56;4781193;29;20050;-66
2023/09/08 11:44:51;;;;;;;17.98;14.10;;;;;;;33.74;nan;97658.75;4784954;29;20095;-64
2023/09/08 11:47:42;;;;;;;21.63;13.77;;;;;;;33.70;nan;97652.41;4786565;29;20047;-64
2023/09/08 11:50:35;;;;;;;21.67;13.95;;;;;;;33.67;nan;97644.13;4789273;29;20125;-64
2023/09/08 11:53:27;;;;;;;23.73;14.43;;;;;;;33.58;nan;97652.59;4789452;29;20703;-64
2023/09/08 11:56:16;;;;;;;16.80;13.63;;;;;;;33.56;nan;97648.63;4781759;29;20066;-65
2023/09/08 11:59:07;;;;;;;18.30;14.25;;;;;;;33.53;nan;97652.91;4785386;29;20570;-64
2023/09/08 12:01:58;;;;;;;19.08;12.52;;;;;;;33.50;nan;97648.16;4450818;29;10000188;-64
2023/09/08 12:04:49;;;;;;;23.40;15.20;;;;;;;33.47;nan;97645.31;4786458;29;20050;-65
2023/09/08 12:07:39;;;;;;;22.00;14.45;;;;;;;33.42;nan;97646.44;4783082;29;20066;-64
2023/09/08 12:10:29;;;;;;;25.95;15.70;;;;;;;33.38;nan;97638.16;4782381;29;20774;-64
2023/09/08 12:13:23;;;;;;;26.42;15.27;;;;;;;33.33;nan;97637.66;4784332;29;20050;-64
2023/09/08 12:16:24;;;;;;;19.50;14.88;;;;;;;33.28;nan;97635.25;4787758;29;20066;-64
2023/09/08 12:19:32;;;;;;;30.20;14.48;;;;;;;33.26;nan;97632.84;4790722;29;20090;-64
2023/09/08 12:22:22;;;;;;;22.63;14.55;;;;;;;33.20;nan;97631.56;4780002;29;20043;-64
2023/09/08 12:25:12;;;;;;;28.04;14.60;;;;;;;33.17;nan;97640.53;4440095;29;10000985;-65
2023/09/08 12:28:02;;;;;;;25.98;16.02;;;;;;;33.16;nan;97633.47;4791041;29;20061;-64